createdAt,value
2023-07-26T00:00:46.436Z,11.30
2023-07-26T00:01:48.581Z,11.90
2023-07-26T00:02:50.809Z,12.40
2023-07-26T00:03:53.141Z,12.20
2023-07-26T00:04:55.367Z,11.80
2023-07-26T00:05:57.509Z,11.00
2023-07-26T00:06:59.738Z,12.30
2023-07-26T00:08:01.872Z,11.40
2023-07-26T00:09:05.441Z,11.90
2023-07-26T00:10:08.420Z,12.70
2023-07-26T00:11:10.529Z,12.00
2023-07-26T00:12:12.498Z,10.40
2023-07-26T00:13:17.964Z,10.10
2023-07-26T00:14:20.147Z,10.50
2023-07-26T00:15:22.252Z,10.90
2023-07-26T00:16:24.419Z,11.10
2023-07-26T00:17:26.604Z,10.30
2023-07-26T00:18:28.693Z,11.00
2023-07-26T00:19:31.010Z,11.10
2023-07-26T00:20:33.325Z,12.80
2023-07-26T00:21:35.440Z,12.60
2023-07-26T00:22:37.516Z,12.40
2023-07-26T00:23:39.666Z,11.80
2023-07-26T00:24:41.701Z,11.30
2023-07-26T00:25:43.763Z,11.40
2023-07-26T00:26:46.187Z,12.60
2023-07-26T00:27:48.403Z,8.20
2023-07-26T00:28:50.575Z,7.20
2023-07-26T00:29:52.698Z,10.30
2023-07-26T00:30:54.933Z,10.70
2023-07-26T00:31:57.125Z,10.60
2023-07-26T00:32:59.300Z,10.80
2023-07-26T00:34:01.261Z,11.60
2023-07-26T00:35:06.424Z,11.50
2023-07-26T00:36:09.071Z,10.70
2023-07-26T00:37:11.136Z,9.80
2023-07-26T00:38:13.211Z,7.10
2023-07-26T00:39:15.872Z,9.80
2023-07-26T00:40:18.407Z,8.20
2023-07-26T00:41:21.376Z,10.10
2023-07-26T00:42:23.463Z,10.60
2023-07-26T00:43:25.355Z,10.78
2023-07-26T00:44:27.356Z,10.67
2023-07-26T00:45:31.124Z,10.00
2023-07-26T00:46:33.752Z,10.00
2023-07-26T00:47:37.139Z,9.80
2023-07-26T00:48:39.816Z,9.64
2023-07-26T00:49:42.092Z,10.60
2023-07-26T00:50:45.731Z,9.90
2023-07-26T00:51:47.989Z,9.80
2023-07-26T00:52:50.195Z,9.00
2023-07-26T00:53:52.737Z,10.00
2023-07-26T00:54:55.078Z,8.90
2023-07-26T00:55:57.288Z,8.10
2023-07-26T00:56:59.702Z,9.80
2023-07-26T00:58:02.746Z,8.80
2023-07-26T00:59:07.249Z,8.55
2023-07-26T01:00:10.191Z,8.60
2023-07-26T01:01:13.291Z,9.80
2023-07-26T01:02:15.421Z,9.10
2023-07-26T01:03:18.023Z,9.50
2023-07-26T01:04:20.072Z,8.30
2023-07-26T01:05:22.810Z,8.50
2023-07-26T01:09:03.610Z,8.30
2023-07-26T01:10:12.845Z,7.10
2023-07-26T01:11:34.046Z,8.20
2023-07-26T01:12:43.027Z,7.20
2023-07-26T01:15:31.217Z,8.50
2023-07-26T01:16:33.769Z,7.80
2023-07-26T01:17:36.949Z,7.30
2023-07-26T01:18:39.041Z,7.90
2023-07-26T01:19:41.267Z,7.60
2023-07-26T01:20:44.485Z,8.00
2023-07-26T01:21:46.797Z,7.40
2023-07-26T01:22:48.898Z,8.00
2023-07-26T01:23:52.180Z,7.60
2023-07-26T01:24:54.188Z,7.00
2023-07-26T01:25:56.465Z,7.20
2023-07-26T01:26:58.717Z,7.00
2023-07-26T01:28:01.051Z,6.50
2023-07-26T01:29:03.992Z,7.50
2023-07-26T01:30:06.956Z,6.00
2023-07-26T01:31:09.662Z,7.50
2023-07-26T01:32:12.867Z,6.80
2023-07-26T01:33:16.371Z,7.10
2023-07-26T01:34:19.184Z,5.70
2023-07-26T01:35:21.755Z,6.82
2023-07-26T01:36:24.371Z,7.80
2023-07-26T01:37:27.418Z,7.90
2023-07-26T01:38:30.410Z,7.45
2023-07-26T01:39:32.667Z,6.90
2023-07-26T01:40:36.047Z,0.70
2023-07-26T01:41:39.156Z,5.70
2023-07-26T01:42:41.850Z,6.00
2023-07-26T01:43:44.459Z,7.30
2023-07-26T01:44:46.556Z,5.80
2023-07-26T01:45:50.588Z,6.40
2023-07-26T01:46:52.720Z,8.00
2023-07-26T01:47:54.901Z,6.70
2023-07-26T01:48:57.026Z,6.80
2023-07-26T01:49:59.351Z,6.10
2023-07-26T01:51:01.650Z,6.10
2023-07-26T01:52:04.321Z,6.80
2023-07-26T01:53:06.678Z,7.09
2023-07-26T01:54:08.688Z,6.70
2023-07-26T01:55:10.823Z,5.90
2023-07-26T01:56:13.237Z,6.60
2023-07-26T01:57:15.454Z,6.10
2023-07-26T01:58:17.610Z,7.20
2023-07-26T01:59:19.875Z,6.00
2023-07-26T02:00:22.154Z,5.60
2023-07-26T02:01:26.195Z,6.50
2023-07-26T02:02:28.322Z,6.50
2023-07-26T02:03:30.861Z,6.30
2023-07-26T02:04:33.084Z,6.80
2023-07-26T02:05:35.491Z,6.60
2023-07-26T02:06:37.981Z,6.30
2023-07-26T02:07:40.098Z,6.80
2023-07-26T02:08:42.599Z,5.50
2023-07-26T02:09:44.717Z,5.90
2023-07-26T02:10:46.868Z,6.30
2023-07-26T02:11:49.048Z,6.30
2023-07-26T02:12:51.149Z,5.40
2023-07-26T02:13:53.393Z,8.00
2023-07-26T02:14:55.599Z,5.80
2023-07-26T02:15:57.809Z,7.20
2023-07-26T02:17:00.232Z,5.90
2023-07-26T02:18:02.755Z,6.20
2023-07-26T02:19:05.968Z,5.50
2023-07-26T02:20:09.769Z,0.00
2023-07-26T02:21:12.045Z,5.30
2023-07-26T02:22:14.242Z,6.10
2023-07-26T02:23:16.302Z,6.40
2023-07-26T02:24:18.618Z,5.70
2023-07-26T02:25:20.732Z,7.00
2023-07-26T02:26:23.045Z,6.10
2023-07-26T02:27:26.212Z,5.80
2023-07-26T02:28:28.417Z,5.90
2023-07-26T02:29:30.652Z,5.50
2023-07-26T02:30:32.951Z,6.00
2023-07-26T02:31:35.287Z,5.40
2023-07-26T02:32:37.956Z,5.55
2023-07-26T02:33:40.029Z,5.10
2023-07-26T02:34:42.763Z,6.00
2023-07-26T02:35:44.898Z,5.90
2023-07-26T02:36:47.417Z,6.80
2023-07-26T02:37:49.499Z,5.90
2023-07-26T02:38:51.592Z,6.00
2023-07-26T02:39:53.822Z,5.20
2023-07-26T02:40:55.993Z,5.70
2023-07-26T02:41:58.052Z,5.40
2023-07-26T02:43:00.172Z,5.30
2023-07-26T02:44:02.315Z,3.70
2023-07-26T02:45:05.368Z,5.70
2023-07-26T02:46:08.790Z,5.20
2023-07-26T02:47:10.945Z,6.60
2023-07-26T02:48:13.329Z,5.90
2023-07-26T02:49:15.370Z,5.30
2023-07-26T02:50:17.714Z,5.30
2023-07-26T02:51:19.828Z,4.90
2023-07-26T02:52:21.952Z,5.70
2023-07-26T02:53:24.087Z,6.70
2023-07-26T02:54:26.214Z,5.70
2023-07-26T02:55:28.675Z,5.30
2023-07-26T02:56:31.065Z,5.30
2023-07-26T02:57:33.126Z,5.60
2023-07-26T02:58:35.329Z,6.00
2023-07-26T02:59:37.620Z,5.90
2023-07-26T03:00:39.909Z,6.70
2023-07-26T03:01:42.072Z,5.80
2023-07-26T03:02:44.234Z,5.30
2023-07-26T03:03:46.390Z,5.80
2023-07-26T03:04:48.535Z,4.90
2023-07-26T03:05:50.683Z,5.40
2023-07-26T03:06:52.901Z,5.50
2023-07-26T03:07:55.053Z,6.30
2023-07-26T03:08:58.608Z,5.80
2023-07-26T03:10:01.017Z,6.40
2023-07-26T03:11:03.401Z,6.80
2023-07-26T03:12:05.895Z,7.30
2023-07-26T03:13:08.054Z,7.10
2023-07-26T03:14:10.269Z,6.80
2023-07-26T03:15:12.454Z,4.80
2023-07-26T03:16:16.680Z,4.64
2023-07-26T03:17:22.859Z,4.30
2023-07-26T03:18:23.012Z,5.80
2023-07-26T03:19:25.070Z,6.33
2023-07-26T03:20:27.549Z,5.40
2023-07-26T03:21:29.613Z,6.20
2023-07-26T03:22:31.826Z,5.60
2023-07-26T03:23:33.896Z,6.30
2023-07-26T03:24:35.993Z,5.20
2023-07-26T03:25:38.083Z,5.40
2023-07-26T03:26:40.782Z,5.70
2023-07-26T03:27:42.893Z,3.80
2023-07-26T03:28:44.989Z,5.70
2023-07-26T03:29:47.244Z,6.50
2023-07-26T03:30:49.572Z,5.50
2023-07-26T03:31:52.309Z,6.70
2023-07-26T03:32:56.411Z,6.50
2023-07-26T03:34:00.530Z,5.80
2023-07-26T03:35:02.635Z,6.50
2023-07-26T03:36:05.223Z,5.00
2023-07-26T03:37:08.278Z,5.50
2023-07-26T03:38:10.521Z,4.70
2023-07-26T03:39:12.600Z,5.10
2023-07-26T03:40:15.139Z,6.20
2023-07-26T03:41:18.402Z,4.70
2023-07-26T03:42:20.681Z,6.40
2023-07-26T03:43:22.743Z,6.10
2023-07-26T03:44:24.837Z,6.90
2023-07-26T03:45:26.832Z,6.67
2023-07-26T03:46:29.064Z,6.90
2023-07-26T03:47:31.135Z,6.80
2023-07-26T03:48:33.158Z,5.70
2023-07-26T03:49:35.333Z,6.50
2023-07-26T03:50:37.792Z,5.50
2023-07-26T03:51:41.886Z,5.30
2023-07-26T03:52:47.113Z,7.00
2023-07-26T03:53:49.206Z,6.70
2023-07-26T03:54:51.333Z,5.60
2023-07-26T03:55:53.430Z,6.40
2023-07-26T03:56:55.746Z,5.80
2023-07-26T03:57:58.169Z,5.60
2023-07-26T03:59:00.315Z,6.00
2023-07-26T04:00:02.908Z,6.20
2023-07-26T04:01:07.029Z,6.20
2023-07-26T04:02:09.336Z,6.20
2023-07-26T04:03:11.864Z,5.60
2023-07-26T04:04:15.126Z,6.40
2023-07-26T04:05:17.645Z,6.10
2023-07-26T04:06:20.206Z,5.80
2023-07-26T04:07:22.300Z,6.10
2023-07-26T04:08:24.471Z,4.00
2023-07-26T04:09:26.594Z,6.40
2023-07-26T04:10:28.795Z,5.50
2023-07-26T04:11:31.023Z,6.20
2023-07-26T04:12:33.128Z,3.90
2023-07-26T04:13:35.493Z,5.10
2023-07-26T04:14:37.494Z,6.30
2023-07-26T04:15:40.447Z,7.20
2023-07-26T04:16:42.981Z,5.60
2023-07-26T04:17:45.022Z,6.40
2023-07-26T04:18:48.074Z,6.90
2023-07-26T04:19:51.565Z,5.90
2023-07-26T04:20:54.724Z,5.80
2023-07-26T04:21:56.806Z,6.09
2023-07-26T04:22:58.818Z,5.20
2023-07-26T04:24:00.870Z,5.90
2023-07-26T04:25:03.248Z,6.20
2023-07-26T04:26:05.675Z,6.50
2023-07-26T04:27:07.866Z,6.50
2023-07-26T04:28:09.991Z,6.80
2023-07-26T04:29:12.360Z,7.90
2023-07-26T04:30:14.872Z,5.90
2023-07-26T04:31:16.997Z,6.10
2023-07-26T04:32:19.113Z,10.10
2023-07-26T04:33:21.304Z,7.90
2023-07-26T04:34:23.368Z,8.50
2023-07-26T04:35:25.368Z,6.40
2023-07-26T04:36:27.614Z,6.90
2023-07-26T04:37:29.705Z,6.50
2023-07-26T04:38:31.875Z,6.90
2023-07-26T04:39:34.060Z,7.80
2023-07-26T04:40:37.281Z,7.50
2023-07-26T04:41:39.456Z,6.60
2023-07-26T04:42:41.705Z,7.20
2023-07-26T04:43:43.810Z,7.40
2023-07-26T04:44:46.264Z,3.80
2023-07-26T04:45:49.697Z,6.50
2023-07-26T04:46:52.201Z,7.20
2023-07-26T04:47:54.306Z,6.80
2023-07-26T04:48:56.366Z,6.90
2023-07-26T04:49:58.530Z,6.70
2023-07-26T04:51:04.467Z,9.10
2023-07-26T04:52:07.221Z,7.20
2023-07-26T04:53:09.599Z,6.60
2023-07-26T04:54:11.662Z,6.90
2023-07-26T04:55:13.973Z,8.80
2023-07-26T04:56:16.375Z,9.50
2023-07-26T04:57:18.507Z,7.60
2023-07-26T04:58:20.685Z,7.80
2023-07-26T04:59:23.036Z,7.00
2023-07-26T05:00:25.514Z,8.00
2023-07-26T05:01:27.680Z,6.70
2023-07-26T05:02:30.129Z,9.00
2023-07-26T05:03:32.896Z,9.60
2023-07-26T05:04:35.748Z,8.20
2023-07-26T05:05:38.619Z,7.55
2023-07-26T05:06:40.934Z,6.91
2023-07-26T05:07:43.302Z,7.70
2023-07-26T05:08:45.891Z,7.70
2023-07-26T05:09:48.340Z,8.00
2023-07-26T05:10:51.254Z,10.30
2023-07-26T05:11:54.117Z,8.40
2023-07-26T05:12:57.494Z,8.50
2023-07-26T05:13:59.820Z,6.70
2023-07-26T05:15:02.025Z,10.00
2023-07-26T05:16:04.972Z,9.70
2023-07-26T05:17:07.400Z,9.50
2023-07-26T05:18:09.587Z,10.60
2023-07-26T05:19:11.878Z,9.80
2023-07-26T05:20:14.187Z,10.10
2023-07-26T05:21:16.458Z,10.00
2023-07-26T05:22:18.640Z,9.10
2023-07-26T05:23:20.838Z,11.00
2023-07-26T05:24:23.193Z,9.70
2023-07-26T05:25:27.854Z,8.10
2023-07-26T05:26:30.124Z,6.70
2023-07-26T05:27:32.383Z,8.00
2023-07-26T05:28:34.520Z,10.40
2023-07-26T05:29:36.872Z,7.10
2023-07-26T05:30:40.457Z,7.60
2023-07-26T05:31:42.753Z,5.70
2023-07-26T05:32:45.481Z,6.50
2023-07-26T05:33:47.915Z,5.91
2023-07-26T05:34:55.472Z,5.80
2023-07-26T05:35:59.660Z,6.40
2023-07-26T05:37:02.417Z,8.30
2023-07-26T05:39:34.262Z,10.80
2023-07-26T05:40:36.752Z,8.30
2023-07-26T05:41:38.939Z,9.20
2023-07-26T05:42:41.097Z,8.40
2023-07-26T05:43:43.234Z,8.10
2023-07-26T05:44:45.798Z,9.00
2023-07-26T05:45:47.940Z,5.30
2023-07-26T05:46:50.793Z,6.18
2023-07-26T05:47:52.934Z,5.60
2023-07-26T05:48:55.110Z,6.60
2023-07-26T05:49:57.538Z,7.90
2023-07-26T05:51:00.021Z,7.10
2023-07-26T05:52:02.205Z,6.90
2023-07-26T05:53:04.355Z,5.80
2023-07-26T05:54:06.459Z,6.50
2023-07-26T05:55:09.501Z,8.60
2023-07-26T05:56:12.564Z,7.60
2023-07-26T05:57:14.853Z,7.50
2023-07-26T05:58:17.100Z,5.50
2023-07-26T05:59:19.230Z,5.70
2023-07-26T06:00:21.622Z,5.30
2023-07-26T06:01:24.023Z,5.80
2023-07-26T06:02:26.439Z,5.50
2023-07-26T06:03:28.671Z,7.10
2023-07-26T06:04:30.721Z,5.00
2023-07-26T06:05:33.092Z,6.50
2023-07-26T06:06:35.579Z,7.00
2023-07-26T06:07:37.605Z,6.50
2023-07-26T06:08:39.793Z,6.20
2023-07-26T06:09:41.935Z,6.50
2023-07-26T06:10:44.599Z,2.70
2023-07-26T06:11:55.578Z,6.20
2023-07-26T06:12:50.840Z,5.00
2023-07-26T06:13:54.424Z,5.90
2023-07-26T06:14:56.564Z,4.60
2023-07-26T06:15:58.737Z,5.90
2023-07-26T06:17:01.680Z,7.09
2023-07-26T06:18:04.117Z,5.40
2023-07-26T06:19:06.644Z,5.90
2023-07-26T06:20:09.890Z,6.09
2023-07-26T06:21:12.079Z,6.64
2023-07-26T06:22:14.167Z,6.40
2023-07-26T06:23:16.263Z,6.70
2023-07-26T06:24:18.406Z,5.40
2023-07-26T06:25:20.564Z,7.10
2023-07-26T06:26:22.942Z,6.30
2023-07-26T06:27:30.041Z,7.70
2023-07-26T06:28:32.292Z,7.30
2023-07-26T06:29:35.344Z,7.00
2023-07-26T06:30:38.384Z,7.09
2023-07-26T06:31:40.639Z,8.40
2023-07-26T06:32:43.009Z,7.60
2023-07-26T06:33:45.304Z,7.20
2023-07-26T06:34:47.400Z,6.50
2023-07-26T06:35:49.373Z,6.00
2023-07-26T06:36:51.593Z,7.00
2023-07-26T06:37:53.657Z,6.90
2023-07-26T06:38:55.710Z,7.80
2023-07-26T06:39:57.780Z,6.40
2023-07-26T06:41:00.005Z,6.60
2023-07-26T06:42:02.193Z,6.70
2023-07-26T06:43:04.414Z,7.90
2023-07-26T06:44:06.499Z,6.60
2023-07-26T06:45:09.284Z,8.10
2023-07-26T06:46:12.443Z,7.70
2023-07-26T06:47:14.571Z,7.70
2023-07-26T06:48:17.345Z,6.60
2023-07-26T06:49:19.802Z,7.60
2023-07-26T06:50:22.310Z,7.00
2023-07-26T06:51:24.629Z,6.60
2023-07-26T06:52:29.194Z,5.30
2023-07-26T06:53:31.936Z,6.80
2023-07-26T06:54:34.036Z,6.60
2023-07-26T06:55:37.330Z,6.40
2023-07-26T06:56:39.637Z,7.30
2023-07-26T06:57:41.660Z,7.90
2023-07-26T06:58:43.676Z,7.00
2023-07-26T06:59:45.802Z,6.00
2023-07-26T07:00:48.109Z,7.70
2023-07-26T07:01:50.353Z,6.70
2023-07-26T07:04:15.578Z,7.20
2023-07-26T07:05:18.146Z,8.70
2023-07-26T07:06:20.656Z,7.70
2023-07-26T07:07:22.760Z,7.20
2023-07-26T07:08:24.850Z,8.70
2023-07-26T07:09:27.075Z,8.50
2023-07-26T07:10:29.387Z,8.30
2023-07-26T07:11:31.622Z,8.50
2023-07-26T07:12:33.891Z,8.50
2023-07-26T07:13:36.865Z,8.60
2023-07-26T07:14:39.029Z,9.80
2023-07-26T07:15:41.108Z,9.60
2023-07-26T07:16:43.636Z,8.40
2023-07-26T07:17:45.725Z,8.20
2023-07-26T07:18:48.909Z,8.20
2023-07-26T07:19:51.076Z,10.10
2023-07-26T07:20:57.739Z,10.20
2023-07-26T07:21:59.947Z,2.20
2023-07-26T07:23:02.026Z,9.20
2023-07-26T07:24:04.625Z,10.00
2023-07-26T07:25:07.180Z,8.90
2023-07-26T07:26:09.785Z,8.50
2023-07-26T07:27:12.067Z,6.70
2023-07-26T07:28:14.175Z,3.90
2023-07-26T07:29:16.414Z,8.50
2023-07-26T07:30:18.757Z,9.40
2023-07-26T07:31:20.819Z,8.22
2023-07-26T07:32:23.253Z,9.00
2023-07-26T07:33:25.350Z,8.60
2023-07-26T07:34:27.438Z,8.90
2023-07-26T07:35:29.415Z,8.56
2023-07-26T07:36:31.778Z,8.00
2023-07-26T07:37:33.945Z,9.10
2023-07-26T07:38:36.336Z,8.80
2023-07-26T07:39:38.400Z,10.10
2023-07-26T07:40:40.885Z,9.50
2023-07-26T07:41:43.007Z,8.80
2023-07-26T07:42:45.035Z,7.40
2023-07-26T07:43:47.092Z,7.20
2023-07-26T07:44:49.235Z,10.10
2023-07-26T07:45:51.354Z,9.00
2023-07-26T07:47:02.695Z,8.40
2023-07-26T07:47:57.627Z,9.60
2023-07-26T07:49:00.608Z,9.20
2023-07-26T07:50:03.156Z,8.80
2023-07-26T07:51:05.153Z,9.20
2023-07-26T07:52:08.053Z,6.00
2023-07-26T07:53:10.658Z,7.80
2023-07-26T07:54:12.784Z,8.50
2023-07-26T07:55:14.733Z,4.78
2023-07-26T07:56:17.466Z,17.10
2023-07-26T07:57:19.585Z,10.50
2023-07-26T07:58:21.747Z,8.00
2023-07-26T07:59:24.009Z,8.80
2023-07-26T08:00:26.302Z,7.90
2023-07-26T08:01:28.439Z,8.60
2023-07-26T08:02:30.667Z,12.50
2023-07-26T08:03:32.822Z,14.30
2023-07-26T08:04:37.409Z,9.70
2023-07-26T08:05:40.677Z,8.10
2023-07-26T08:06:42.885Z,8.60
2023-07-26T08:07:45.217Z,4.60
2023-07-26T08:08:47.379Z,9.60
2023-07-26T08:09:49.466Z,8.50
2023-07-26T08:10:52.065Z,7.40
2023-07-26T08:11:54.149Z,7.30
2023-07-26T08:12:56.252Z,8.50
2023-07-26T08:13:58.396Z,8.20
2023-07-26T08:15:00.515Z,8.90
2023-07-26T08:16:04.997Z,9.30
2023-07-26T08:17:08.700Z,8.90
2023-07-26T08:18:11.017Z,9.60
2023-07-26T08:19:13.159Z,8.80
2023-07-26T08:20:15.459Z,8.00
2023-07-26T08:21:17.573Z,7.10
2023-07-26T08:22:19.678Z,8.40
2023-07-26T08:23:24.842Z,8.80
2023-07-26T08:24:27.673Z,8.50
2023-07-26T08:25:30.487Z,9.64
2023-07-26T08:26:32.605Z,9.40
2023-07-26T08:27:34.841Z,9.20
2023-07-26T08:28:37.062Z,8.60
2023-07-26T08:29:39.210Z,8.90
2023-07-26T08:30:42.381Z,8.30
2023-07-26T08:31:44.607Z,9.00
2023-07-26T08:32:46.780Z,8.50
2023-07-26T08:33:48.857Z,8.20
2023-07-26T08:34:51.004Z,9.00
2023-07-26T08:35:53.636Z,8.90
2023-07-26T08:36:55.894Z,8.73
2023-07-26T08:37:58.096Z,8.80
2023-07-26T08:39:00.433Z,9.20
2023-07-26T08:40:03.006Z,9.30
2023-07-26T08:41:05.213Z,7.90
2023-07-26T08:42:07.949Z,8.50
2023-07-26T08:43:10.349Z,9.30
2023-07-26T08:44:13.492Z,13.30
2023-07-26T08:45:16.699Z,12.10
2023-07-26T08:46:20.995Z,10.60
2023-07-26T08:47:23.305Z,9.60
2023-07-26T08:48:25.675Z,9.70
2023-07-26T08:49:28.625Z,10.30
2023-07-26T08:50:31.368Z,16.10
2023-07-26T08:51:34.087Z,20.00
2023-07-26T08:52:37.111Z,16.55
2023-07-26T08:53:40.643Z,14.10
2023-07-26T08:54:44.087Z,16.60
2023-07-26T08:55:47.708Z,17.80
2023-07-26T08:56:50.469Z,25.10
2023-07-26T08:57:52.729Z,29.80
2023-07-26T08:58:54.812Z,19.70
2023-07-26T08:59:56.889Z,14.80
2023-07-26T09:00:59.540Z,11.80
2023-07-26T09:02:04.793Z,8.20
2023-07-26T09:03:08.079Z,10.60
2023-07-26T09:04:10.276Z,13.18
2023-07-26T09:05:12.920Z,11.30
2023-07-26T09:06:15.721Z,9.30
2023-07-26T09:07:18.651Z,10.30
2023-07-26T09:08:20.939Z,10.00
2023-07-26T09:09:23.230Z,10.40
2023-07-26T09:10:27.632Z,12.80
2023-07-26T09:11:29.944Z,10.70
2023-07-26T09:12:32.078Z,11.60
2023-07-26T09:13:34.251Z,11.70
2023-07-26T09:14:36.313Z,10.00
2023-07-26T09:15:40.813Z,10.00
2023-07-26T09:16:43.246Z,10.50
2023-07-26T09:17:46.084Z,9.00
2023-07-26T09:19:05.252Z,10.45
2023-07-26T09:20:22.321Z,9.40
2023-07-26T09:22:35.481Z,9.40
2023-07-26T09:23:52.092Z,7.70
2023-07-26T09:24:50.369Z,8.10
2023-07-26T09:25:52.632Z,5.90
2023-07-26T09:26:58.657Z,9.10
2023-07-26T09:28:01.919Z,9.70
2023-07-26T09:29:14.692Z,8.90
2023-07-26T09:30:22.104Z,10.00
2023-07-26T09:31:31.828Z,9.40
2023-07-26T09:32:34.328Z,9.10
2023-07-26T09:33:37.123Z,8.70
2023-07-26T09:34:40.084Z,8.80
2023-07-26T09:35:47.358Z,9.09
2023-07-26T09:36:51.202Z,9.00
2023-07-26T09:37:55.358Z,9.50
2023-07-26T09:38:58.086Z,10.30
2023-07-26T09:40:01.024Z,8.70
2023-07-26T09:42:21.500Z,9.70
2023-07-26T09:43:38.218Z,10.30
2023-07-26T09:44:43.384Z,9.80
2023-07-26T09:45:45.530Z,9.80
2023-07-26T09:48:20.822Z,8.30
2023-07-26T09:49:24.105Z,8.40
2023-07-26T09:51:32.678Z,7.50
2023-07-26T09:52:35.025Z,7.80
2023-07-26T09:53:37.813Z,8.60
2023-07-26T09:54:39.904Z,8.80
2023-07-26T09:55:42.370Z,12.00
2023-07-26T09:56:46.153Z,12.10
2023-07-26T09:57:49.042Z,11.30
2023-07-26T09:58:51.579Z,9.82
2023-07-26T09:59:56.243Z,8.90
2023-07-26T10:01:01.090Z,9.10
2023-07-26T10:02:06.066Z,9.80
2023-07-26T10:03:10.913Z,9.30
2023-07-26T10:04:15.612Z,9.10
2023-07-26T10:05:19.213Z,8.70
2023-07-26T10:06:23.445Z,9.70
2023-07-26T10:07:25.985Z,7.30
2023-07-26T10:08:28.161Z,8.10
2023-07-26T10:09:31.390Z,8.80
2023-07-26T10:10:33.656Z,8.90
2023-07-26T10:11:36.682Z,9.00
2023-07-26T10:12:40.246Z,9.73
2023-07-26T10:13:43.554Z,8.70
2023-07-26T10:14:47.329Z,9.70
2023-07-26T10:15:50.986Z,9.70
2023-07-26T10:16:53.516Z,8.60
2023-07-26T10:17:55.927Z,8.80
2023-07-26T10:19:01.981Z,10.55
2023-07-26T10:20:05.905Z,11.50
2023-07-26T10:21:09.505Z,9.10
2023-07-26T10:22:11.836Z,8.40
2023-07-26T10:23:14.394Z,7.00
2023-07-26T10:24:17.410Z,7.10
2023-07-26T10:25:20.085Z,8.45
2023-07-26T10:26:22.754Z,7.40
2023-07-26T10:27:25.483Z,7.40
2023-07-26T10:28:28.263Z,8.55
2023-07-26T10:29:30.566Z,7.90
2023-07-26T10:30:33.177Z,9.80
2023-07-26T10:31:35.630Z,9.40
2023-07-26T10:32:46.556Z,7.80
2023-07-26T10:33:49.007Z,7.70
2023-07-26T10:36:05.621Z,11.80
2023-07-26T10:37:18.340Z,8.30
2023-07-26T10:38:20.585Z,8.09
2023-07-26T10:39:30.032Z,6.90
2023-07-26T10:40:37.761Z,8.50
2023-07-26T10:41:49.791Z,7.50
2023-07-26T10:42:52.089Z,8.20
2023-07-26T10:44:09.101Z,7.80
2023-07-26T10:45:15.025Z,8.20
2023-07-26T10:46:18.026Z,7.10
2023-07-26T10:47:21.756Z,7.00
2023-07-26T10:48:30.627Z,7.60
2023-07-26T10:49:34.246Z,7.50
2023-07-26T10:50:36.467Z,6.70
2023-07-26T10:51:42.333Z,8.10
2023-07-26T10:52:44.545Z,8.60
2023-07-26T10:53:46.587Z,7.80
2023-07-26T10:54:50.397Z,9.20
2023-07-26T10:55:52.454Z,9.30
2023-07-26T10:57:22.537Z,7.20
2023-07-26T10:58:24.686Z,8.30
2023-07-26T10:59:27.971Z,7.80
2023-07-26T11:00:34.905Z,8.10
2023-07-26T11:01:39.497Z,7.80
2023-07-26T11:02:47.124Z,7.20
2023-07-26T11:03:49.232Z,8.20
2023-07-26T11:04:52.200Z,9.00
2023-07-26T11:05:55.674Z,10.27
2023-07-26T11:07:00.914Z,12.20
2023-07-26T11:08:06.269Z,10.90
2023-07-26T11:10:39.505Z,9.70
2023-07-26T11:11:56.568Z,9.90
2023-07-26T11:13:13.737Z,8.20
2023-07-26T11:14:17.198Z,9.80
2023-07-26T11:16:13.024Z,8.80
2023-07-26T11:16:37.588Z,4.90
2023-07-26T11:17:43.114Z,7.80
2023-07-26T11:18:45.235Z,6.20
2023-07-26T11:21:18.370Z,7.90
2023-07-26T11:22:21.032Z,9.40
2023-07-26T11:23:28.597Z,7.60
2023-07-26T11:24:31.092Z,7.00
2023-07-26T11:25:35.484Z,7.40
2023-07-26T11:26:45.949Z,7.30
2023-07-26T11:27:49.293Z,5.40
2023-07-26T11:28:51.626Z,7.20
2023-07-26T11:29:53.732Z,8.30
2023-07-26T11:30:56.644Z,7.60
2023-07-26T11:31:58.857Z,7.90
2023-07-26T11:33:01.045Z,6.80
2023-07-26T11:34:18.217Z,8.30
2023-07-26T11:35:23.260Z,9.00
2023-07-26T11:36:25.300Z,7.90
2023-07-26T11:37:27.442Z,5.60
2023-07-26T11:38:29.563Z,8.64
2023-07-26T11:39:31.657Z,7.50
2023-07-26T11:40:41.133Z,6.50
2023-07-26T11:41:44.138Z,6.80
2023-07-26T11:42:46.823Z,7.64
2023-07-26T11:43:48.966Z,7.00
2023-07-26T11:44:51.171Z,7.00
2023-07-26T11:45:53.793Z,7.10
2023-07-26T11:47:00.266Z,6.40
2023-07-26T11:48:02.745Z,6.60
2023-07-26T11:49:05.018Z,6.60
2023-07-26T11:50:07.691Z,6.50
2023-07-26T11:51:09.877Z,6.60
2023-07-26T11:52:14.640Z,6.20
2023-07-26T11:53:25.074Z,6.60
2023-07-26T11:54:21.082Z,6.00
2023-07-26T11:55:23.194Z,6.60
2023-07-26T11:56:29.138Z,5.60
2023-07-26T11:57:32.076Z,5.70
2023-07-26T11:58:34.972Z,7.09
2023-07-26T11:59:37.364Z,6.73
2023-07-26T12:00:46.018Z,7.70
2023-07-26T12:01:48.305Z,7.40
2023-07-26T12:02:50.470Z,7.20
2023-07-26T12:03:52.672Z,7.00
2023-07-26T12:05:20.428Z,7.50
2023-07-26T12:06:31.420Z,7.60
2023-07-26T12:07:35.384Z,7.00
2023-07-26T12:08:37.866Z,6.70
2023-07-26T12:09:46.470Z,6.80
2023-07-26T12:10:50.468Z,7.20
2023-07-26T12:11:53.504Z,4.30
2023-07-26T12:12:56.417Z,7.40
2023-07-26T12:13:58.739Z,7.18
2023-07-26T12:15:03.435Z,7.70
2023-07-26T12:16:06.155Z,6.60
2023-07-26T12:17:12.226Z,5.80
2023-07-26T12:18:14.575Z,8.00
2023-07-26T12:19:22.135Z,8.20
2023-07-26T12:20:34.239Z,7.20
2023-07-26T12:21:29.845Z,7.70
2023-07-26T12:22:31.946Z,6.40
2023-07-26T12:23:53.777Z,7.20
2023-07-26T12:24:57.037Z,6.70
2023-07-26T12:26:01.123Z,6.40
2023-07-26T12:27:03.689Z,6.70
2023-07-26T12:28:06.944Z,5.80
2023-07-26T12:29:09.157Z,6.30
2023-07-26T12:30:13.007Z,7.64
2023-07-26T12:31:20.195Z,7.70
2023-07-26T12:32:22.370Z,3.60
2023-07-26T12:33:25.567Z,7.10
2023-07-26T12:34:32.551Z,6.64
2023-07-26T12:35:35.417Z,6.00
2023-07-26T12:36:41.651Z,7.10
2023-07-26T12:37:43.782Z,7.60
2023-07-26T12:38:46.367Z,8.80
2023-07-26T12:39:48.481Z,7.00
2023-07-26T12:40:52.206Z,7.45
2023-07-26T12:41:54.369Z,6.40
2023-07-26T12:42:56.483Z,6.80
2023-07-26T12:43:58.728Z,6.50
2023-07-26T12:45:00.870Z,7.20
2023-07-26T12:46:03.335Z,6.90
2023-07-26T12:48:09.464Z,7.30
2023-07-26T12:49:11.961Z,8.00
2023-07-26T12:50:15.414Z,7.00
2023-07-26T12:51:17.593Z,6.90
2023-07-26T12:52:19.720Z,13.70
2023-07-26T12:53:24.266Z,12.00
2023-07-26T12:54:27.254Z,9.90
2023-07-26T12:55:29.607Z,6.90
2023-07-26T12:56:31.952Z,6.90
2023-07-26T12:57:35.008Z,5.90
2023-07-26T12:58:37.166Z,7.60
2023-07-26T12:59:40.182Z,10.80
2023-07-26T13:00:43.011Z,9.50
2023-07-26T13:01:45.248Z,7.90
2023-07-26T13:02:47.544Z,6.70
2023-07-26T13:03:49.765Z,7.00
2023-07-26T13:04:52.242Z,8.00
2023-07-26T13:05:54.347Z,6.90
2023-07-26T13:06:56.673Z,7.70
2023-07-26T13:07:59.076Z,6.70
2023-07-26T13:09:02.130Z,6.55
2023-07-26T13:10:05.230Z,7.18
2023-07-26T13:11:07.417Z,7.27
2023-07-26T13:12:09.539Z,6.40
2023-07-26T13:13:11.674Z,7.30
2023-07-26T13:14:14.019Z,7.80
2023-07-26T13:15:17.174Z,8.10
2023-07-26T13:16:20.002Z,7.20
2023-07-26T13:17:22.302Z,7.10
2023-07-26T13:18:24.474Z,8.80
2023-07-26T13:19:26.581Z,7.00
2023-07-26T13:20:29.501Z,8.00
2023-07-26T13:23:01.158Z,6.70
2023-07-26T13:24:03.698Z,7.80
2023-07-26T13:25:06.770Z,6.70
2023-07-26T13:26:09.552Z,8.70
2023-07-26T13:27:11.671Z,8.20
2023-07-26T13:28:13.817Z,6.70
2023-07-26T13:29:16.204Z,7.20
2023-07-26T13:30:18.873Z,6.50
2023-07-26T13:31:21.031Z,6.10
2023-07-26T13:32:23.239Z,5.00
2023-07-26T13:33:26.957Z,5.60
2023-07-26T13:34:29.265Z,5.90
2023-07-26T13:35:31.597Z,6.50
2023-07-26T13:36:34.210Z,7.00
2023-07-26T13:37:36.642Z,5.80
2023-07-26T13:38:38.713Z,7.50
2023-07-26T13:39:40.791Z,7.20
2023-07-26T13:40:43.649Z,6.55
2023-07-26T13:41:45.774Z,8.30
2023-07-26T13:42:48.114Z,7.30
2023-07-26T13:43:50.214Z,7.50
2023-07-26T13:44:52.509Z,6.50
2023-07-26T13:45:54.578Z,7.00
2023-07-26T13:46:57.031Z,6.90
2023-07-26T13:47:59.154Z,7.20
2023-07-26T13:49:01.313Z,7.40
2023-07-26T13:50:04.161Z,6.60
2023-07-26T13:51:08.290Z,5.27
2023-07-26T13:52:10.477Z,5.80
2023-07-26T13:53:12.677Z,6.30
2023-07-26T13:54:15.006Z,6.20
2023-07-26T13:55:17.159Z,7.20
2023-07-26T13:56:19.367Z,7.10
2023-07-26T13:57:21.477Z,7.90
2023-07-26T13:58:23.549Z,8.10
2023-07-26T13:59:25.686Z,6.90
2023-07-26T14:00:27.957Z,6.80
2023-07-26T14:01:31.527Z,5.80
2023-07-26T14:02:34.086Z,6.30
2023-07-26T14:03:36.409Z,6.70
2023-07-26T14:04:39.873Z,5.60
2023-07-26T14:05:42.027Z,6.40
2023-07-26T14:06:44.437Z,6.00
2023-07-26T14:07:46.597Z,6.50
2023-07-26T14:08:48.688Z,6.20
2023-07-26T14:09:50.659Z,6.20
2023-07-26T14:10:53.371Z,6.60
2023-07-26T14:11:55.491Z,6.00
2023-07-26T14:12:57.669Z,6.20
2023-07-26T14:14:00.329Z,6.40
2023-07-26T14:15:02.593Z,5.80
2023-07-26T14:16:20.395Z,5.90